sensor_id;sensor_type;location;lat;lon;timestamp;pressure;altitude;pressure_sealevel;temperature;humidity
54808;BME280;40708;50.364;7.550;2023-03-22T00:00:06;100194.22;;;9.58;100.00
54808;BME280;40708;50.364;7.550;2023-03-22T00:02:36;100198.63;;;9.54;100.00
54808;BME280;40708;50.364;7.550;2023-03-22T00:05:01;100193.34;;;9.50;100.00
54808;BME280;40708;50.364;7.550;2023-03-22T00:07:27;100192.44;;;9.54;100.00
54808;BME280;40708;50.364;7.550;2023-03-22T00:09:52;100194.22;;;9.52;100.00
54808;BME280;40708;50.364;7.550;2023-03-22T00:12:17;100190.69;;;9.44;100.00
54808;BME280;40708;50.364;7.550;2023-03-22T00:14:43;100193.34;;;9.39;100.00
54808;BME280;40708;50.364;7.550;2023-03-22T00:17:09;100195.09;;;9.40;100.00
54808;BME280;40708;50.364;7.550;2023-03-22T00:19:35;100203.03;;;9.36;100.00
54808;BME280;40708;50.364;7.550;2023-03-22T00:22:01;100197.75;;;9.37;100.00
54808;BME280;40708;50.364;7.550;2023-03-22T00:24:30;100188.91;;;9.38;100.00
54808;BME280;40708;50.364;7.550;2023-03-22T00:26:56;100187.13;;;9.27;100.00
54808;BME280;40708;50.364;7.550;2023-03-22T00:29:22;100185.38;;;9.23;100.00
54808;BME280;40708;50.364;7.550;2023-03-22T00:31:48;100189.78;;;9.18;100.00
54808;BME280;40708;50.364;7.550;2023-03-22T00:34:14;100186.19;;;9.01;100.00
54808;BME280;40708;50.364;7.550;2023-03-22T00:36:39;100189.72;;;9.03;100.00
54808;BME280;40708;50.364;7.550;2023-03-22T00:39:04;100187.97;;;8.94;100.00
54808;BME280;40708;50.364;7.550;2023-03-22T00:41:30;100190.59;;;8.92;100.00
54808;BME280;40708;50.364;7.550;2023-03-22T00:43:55;100183.56;;;9.08;100.00
54808;BME280;40708;50.364;7.550;2023-03-22T00:46:21;100192.41;;;9.16;100.00
54808;BME280;40708;50.364;7.550;2023-03-22T00:48:47;100187.13;;;9.18;100.00
54808;BME280;40708;50.364;7.550;2023-03-22T00:51:13;100180.06;;;9.20;100.00
54808;BME280;40708;50.364;7.550;2023-03-22T00:53:39;100173.94;;;9.34;100.00
54808;BME280;40708;50.364;7.550;2023-03-22T00:56:05;100173.91;;;9.33;100.00
54808;BME280;40708;50.364;7.550;2023-03-22T00:58:30;100178.31;;;9.31;100.00
54808;BME280;40708;50.364;7.550;2023-03-22T01:00:56;100162.44;;;9.31;100.00
54808;BME280;40708;50.364;7.550;2023-03-22T01:03:21;100165.09;;;9.26;100.00
54808;BME280;40708;50.364;7.550;2023-03-22T01:05:47;100161.53;;;9.24;100.00
54808;BME280;40708;50.364;7.550;2023-03-22T01:08:14;100164.19;;;9.18;100.00
54808;BME280;40708;50.364;7.550;2023-03-22T01:10:40;100155.31;;;8.98;100.00
54808;BME280;40708;50.364;7.550;2023-03-22T01:13:06;100149.13;;;8.79;100.00
54808;BME280;40708;50.364;7.550;2023-03-22T01:15:31;100160.53;;;8.59;100.00
54808;BME280;40708;50.364;7.550;2023-03-22T01:17:57;100157.81;;;8.45;100.00
54808;BME280;40708;50.364;7.550;2023-03-22T01:20:22;100154.22;;;8.31;100.00
54808;BME280;40708;50.364;7.550;2023-03-22T01:22:48;100159.41;;;8.17;100.00
54808;BME280;40708;50.364;7.550;2023-03-22T01:25:13;100164.56;;;8.02;100.00
54808;BME280;40708;50.364;7.550;2023-03-22T01:27:39;100178.63;;;7.95;100.00
54808;BME280;40708;50.364;7.550;2023-03-22T01:30:05;100176.00;;;8.00;100.00
54808;BME280;40708;50.364;7.550;2023-03-22T01:32:30;100173.41;;;8.01;100.00
54808;BME280;40708;50.364;7.550;2023-03-22T01:34:55;100184.75;;;7.90;100.00
54808;BME280;40708;50.364;7.550;2023-03-22T01:37:21;100188.19;;;7.78;100.00
54808;BME280;40708;50.364;7.550;2023-03-22T01:39:53;100191.63;;;7.68;100.00
54808;BME280;40708;50.364;7.550;2023-03-22T01:42:19;100190.69;;;7.60;100.00
54808;BME280;40708;50.364;7.550;2023-03-22T01:47:42;100201.09;;;7.42;100.00
54808;BME280;40708;50.364;7.550;2023-03-22T01:50:10;100193.16;;;7.39;100.00
54808;BME280;40708;50.364;7.550;2023-03-22T01:52:36;100195.78;;;7.39;100.00
54808;BME280;40708;50.364;7.550;2023-03-22T01:55:03;100193.13;;;7.37;100.00
54808;BME280;40708;50.364;7.550;2023-03-22T01:57:31;100196.59;;;7.30;100.00
54808;BME280;40708;50.364;7.550;2023-03-22T02:00:03;100197.41;;;7.25;100.00
54808;BME280;40708;50.364;7.550;2023-03-22T02:02:33;100208.75;;;7.14;100.00
54808;BME280;40708;50.364;7.550;2023-03-22T02:05:00;100210.41;;;7.08;100.00
54808;BME280;40708;50.364;7.550;2023-03-22T02:07:25;100212.09;;;7.01;100.00
54808;BME280;40708;50.364;7.550;2023-03-22T02:09:54;100227.88;;;6.97;100.00
54808;BME280;40708;50.364;7.550;2023-03-22T02:15:10;100240.91;;;6.82;100.00
54808;BME280;40708;50.364;7.550;2023-03-22T02:20:50;100249.59;;;6.75;100.00
54808;BME280;40708;50.364;7.550;2023-03-22T02:28:36;100258.25;;;6.66;100.00
54808;BME280;40708;50.364;7.550;2023-03-22T02:36:52;100249.22;;;6.46;100.00
54808;BME280;40708;50.364;7.550;2023-03-22T02:45:09;100266.81;;;6.48;100.00
54808;BME280;40708;50.364;7.550;2023-03-22T02:47:42;100273.88;;;6.51;100.00
54808;BME280;40708;50.364;7.550;2023-03-22T02:52:53;100272.25;;;6.60;100.00
54808;BME280;40708;50.364;7.550;2023-03-22T02:55:29;100259.03;;;6.57;100.00
54808;BME280;40708;50.364;7.550;2023-03-22T03:00:50;100253.66;;;6.50;100.00
54808;BME280;40708;50.364;7.550;2023-03-22T03:03:19;100243.09;;;6.50;100.00
54808;BME280;40708;50.364;7.550;2023-03-22T03:05:53;100243.22;;;6.57;100.00
54808;BME280;40708;50.364;7.550;2023-03-22T03:08:21;100242.34;;;6.57;100.00
54808;BME280;40708;50.364;7.550;2023-03-22T03:10:49;100234.44;;;6.57;100.00
54808;BME280;40708;50.364;7.550;2023-03-22T03:13:16;100233.50;;;6.53;100.00
54808;BME280;40708;50.364;7.550;2023-03-22T03:15:45;100238.78;;;6.55;100.00
54808;BME280;40708;50.364;7.550;2023-03-22T03:18:27;100230.88;;;6.53;100.00
54808;BME280;40708;50.364;7.550;2023-03-22T03:29:24;100227.38;;;6.54;100.00
54808;BME280;40708;50.364;7.550;2023-03-22T03:32:02;100225.59;;;6.55;100.00
54808;BME280;40708;50.364;7.550;2023-03-22T03:34:43;100227.28;;;6.48;100.00
54808;BME280;40708;50.364;7.550;2023-03-22T03:37:22;100229.78;;;6.38;100.00
54808;BME280;40708;50.364;7.550;2023-03-22T03:40:07;100234.06;;;6.31;100.00
54808;BME280;40708;50.364;7.550;2023-03-22T03:42:36;100220.84;;;6.27;100.00
54808;BME280;40708;50.364;7.550;2023-03-22T03:45:02;100222.56;;;6.25;100.00
54808;BME280;40708;50.364;7.550;2023-03-22T03:47:29;100216.38;;;6.23;100.00
54808;BME280;40708;50.364;7.550;2023-03-22T03:49:55;100220.66;;;6.15;100.00
54808;BME280;40708;50.364;7.550;2023-03-22T03:52:20;100215.31;;;6.09;100.00
54808;BME280;40708;50.364;7.550;2023-03-22T03:54:48;100225.84;;;6.09;100.00
54808;BME280;40708;50.364;7.550;2023-03-22T03:57:14;100224.91;;;6.07;100.00
54808;BME280;40708;50.364;7.550;2023-03-22T03:59:40;100227.53;;;6.05;100.00
54808;BME280;40708;50.364;7.550;2023-03-22T04:02:06;100225.88;;;6.10;100.00
54808;BME280;40708;50.364;7.550;2023-03-22T04:04:31;100243.44;;;6.11;100.00
54808;BME280;40708;50.364;7.550;2023-03-22T04:07:00;100239.81;;;6.06;100.00
54808;BME280;40708;50.364;7.550;2023-03-22T04:09:29;100248.63;;;6.07;100.00
54808;BME280;40708;50.364;7.550;2023-03-22T04:11:56;100255.34;;;5.86;100.00
54808;BME280;40708;50.364;7.550;2023-03-22T04:14:22;100253.63;;;5.88;100.00
54808;BME280;40708;50.364;7.550;2023-03-22T04:16:48;100260.72;;;5.94;100.00
54808;BME280;40708;50.364;7.550;2023-03-22T04:19:14;100257.16;;;5.90;100.00
54808;BME280;40708;50.364;7.550;2023-03-22T04:21:39;100251.94;;;5.93;100.00
54808;BME280;40708;50.364;7.550;2023-03-22T04:24:05;100261.56;;;5.91;100.00
54808;BME280;40708;50.364;7.550;2023-03-22T04:26:31;100258.97;;;5.94;100.00
54808;BME280;40708;50.364;7.550;2023-03-22T04:28:56;100267.72;;;5.93;100.00
54808;BME280;40708;50.364;7.550;2023-03-22T04:31:27;100265.19;;;5.99;100.00
54808;BME280;40708;50.364;7.550;2023-03-22T04:33:53;100266.88;;;5.94;100.00
54808;BME280;40708;50.364;7.550;2023-03-22T04:36:20;100257.34;;;6.03;100.00
54808;BME280;40708;50.364;7.550;2023-03-22T04:38:46;100267.06;;;6.07;100.00
54808;BME280;40708;50.364;7.550;2023-03-22T04:41:11;100271.75;;;6.26;100.00
54808;BME280;40708;50.364;7.550;2023-03-22T04:43:37;100277.91;;;6.26;100.00
54808;BME280;40708;50.364;7.550;2023-03-22T04:46:06;100276.31;;;6.36;100.00
54808;BME280;40708;50.364;7.550;2023-03-22T04:48:40;100279.94;;;6.45;100.00
54808;BME280;40708;50.364;7.550;2023-03-22T04:51:08;100284.88;;;6.84;100.00
54808;BME280;40708;50.364;7.550;2023-03-22T04:53:33;100296.84;;;7.30;100.00
54808;BME280;40708;50.364;7.550;2023-03-22T04:56:04;100290.84;;;7.43;100.00
54808;BME280;40708;50.364;7.550;2023-03-22T04:58:31;100291.00;;;7.60;100.00
54808;BME280;40708;50.364;7.550;2023-03-22T05:00:57;100283.25;;;7.76;100.00
54808;BME280;40708;50.364;7.550;2023-03-22T05:03:22;100267.28;;;7.64;100.00
54808;BME280;40708;50.364;7.550;2023-03-22T05:05:58;100270.00;;;7.69;100.00
54808;BME280;40708;50.364;7.550;2023-03-22T05:08:26;100245.34;;;7.70;100.00
54808;BME280;40708;50.364;7.550;2023-03-22T05:10:53;100226.81;;;7.67;100.00
54808;BME280;40708;50.364;7.550;2023-03-22T05:13:19;100229.47;;;7.67;100.00
54808;BME280;40708;50.364;7.550;2023-03-22T05:15:46;100214.59;;;7.76;100.00
54808;BME280;40708;50.364;7.550;2023-03-22T05:18:13;100211.09;;;7.79;100.00
54808;BME280;40708;50.364;7.550;2023-03-22T05:20:40;100198.78;;;7.81;100.00
54808;BME280;40708;50.364;7.550;2023-03-22T05:23:05;100190.88;;;7.86;100.00
54808;BME280;40708;50.364;7.550;2023-03-22T05:25:31;100185.66;;;7.90;100.00
54808;BME280;40708;50.364;7.550;2023-03-22T05:27:56;100176.88;;;7.96;100.00
54808;BME280;40708;50.364;7.550;2023-03-22T05:30:26;100163.72;;;8.06;100.00
54808;BME280;40708;50.364;7.550;2023-03-22T05:32:58;100157.56;;;8.07;100.00
54808;BME280;40708;50.364;7.550;2023-03-22T05:35:25;100152.28;;;8.10;100.00
54808;BME280;40708;50.364;7.550;2023-03-22T05:37:51;100148.78;;;8.13;100.00
54808;BME280;40708;50.364;7.550;2023-03-22T05:40:17;100150.63;;;8.23;100.00
54808;BME280;40708;50.364;7.550;2023-03-22T05:42:43;100138.28;;;8.26;100.00
54808;BME280;40708;50.364;7.550;2023-03-22T05:45:09;100140.16;;;8.36;100.00
54808;BME280;40708;50.364;7.550;2023-03-22T05:47:35;100147.25;;;8.53;100.00
54808;BME280;40708;50.364;7.550;2023-03-22T05:50:01;100144.66;;;8.59;100.00
54808;BME280;40708;50.364;7.550;2023-03-22T05:52:27;100145.56;;;8.67;100.00
54808;BME280;40708;50.364;7.550;2023-03-22T05:54:52;100135.88;;;8.78;100.00
54808;BME280;40708;50.364;7.550;2023-03-22T05:57:17;100141.19;;;8.90;100.00
54808;BME280;40708;50.364;7.550;2023-03-22T05:59:43;100133.25;;;8.94;100.00
54808;BME280;40708;50.364;7.550;2023-03-22T06:02:08;100129.75;;;8.94;100.00
54808;BME280;40708;50.364;7.550;2023-03-22T06:04:36;100114.75;;;8.96;100.00
54808;BME280;40708;50.364;7.550;2023-03-22T06:07:01;100108.59;;;9.09;100.00
54808;BME280;40708;50.364;7.550;2023-03-22T06:09:27;100105.06;;;9.12;100.00
54808;BME280;40708;50.364;7.550;2023-03-22T06:11:52;100105.94;;;9.17;100.00
54808;BME280;40708;50.364;7.550;2023-03-22T06:14:17;100102.44;;;9.22;100.00
54808;BME280;40708;50.364;7.550;2023-03-22T06:16:43;100090.06;;;9.24;100.00
54808;BME280;40708;50.364;7.550;2023-03-22T06:19:08;100089.19;;;9.30;100.00
54808;BME280;40708;50.364;7.550;2023-03-22T06:21:33;100083.91;;;9.39;100.00
54808;BME280;40708;50.364;7.550;2023-03-22T06:23:59;100081.25;;;9.46;100.00
54808;BME280;40708;50.364;7.550;2023-03-22T06:26:24;100077.72;;;9.47;100.00
54808;BME280;40708;50.364;7.550;2023-03-22T06:28:49;100079.47;;;9.61;100.00
54808;BME280;40708;50.364;7.550;2023-03-22T06:31:15;100079.44;;;9.80;100.00
54808;BME280;40708;50.364;7.550;2023-03-22T06:33:40;100060.84;;;9.89;100.00
54808;BME280;40708;50.364;7.550;2023-03-22T06:36:06;100063.44;;;10.12;100.00
54808;BME280;40708;50.364;7.550;2023-03-22T06:38:31;100043.91;;;10.36;100.00
54808;BME280;40708;50.364;7.550;2023-03-22T06:40:56;100028.75;;;10.57;100.00
54808;BME280;40708;50.364;7.550;2023-03-22T06:43:21;100025.00;;;10.89;100.00
54808;BME280;40708;50.364;7.550;2023-03-22T06:45:47;100014.25;;;11.05;100.00
54808;BME280;40708;50.364;7.550;2023-03-22T06:48:13;100012.34;;;11.21;100.00
54808;BME280;40708;50.364;7.550;2023-03-22T06:50:39;100017.22;;;11.63;100.00
54808;BME280;40708;50.364;7.550;2023-03-22T06:53:06;100009.47;;;11.45;100.00
54808;BME280;40708;50.364;7.550;2023-03-22T06:55:32;100005.13;;;11.33;100.00
54808;BME280;40708;50.364;7.550;2023-03-22T06:58:00;100022.88;;;11.28;100.00
54808;BME280;40708;50.364;7.550;2023-03-22T07:00:27;100025.44;;;11.39;100.00
54808;BME280;40708;50.364;7.550;2023-03-22T07:02:52;100025.44;;;11.41;100.00
54808;BME280;40708;50.364;7.550;2023-03-22T07:05:18;100014.09;;;11.25;100.00
54808;BME280;40708;50.364;7.550;2023-03-22T07:07:43;100020.25;;;11.28;100.00
54808;BME280;40708;50.364;7.550;2023-03-22T07:10:09;100023.81;;;11.26;100.00
54808;BME280;40708;50.364;7.550;2023-03-22T07:12:34;100022.09;;;11.20;100.00
54808;BME280;40708;50.364;7.550;2023-03-22T07:15:00;100007.69;;;11.44;100.00
54808;BME280;40708;50.364;7.550;2023-03-22T07:17:25;100019.94;;;11.60;100.00
54808;BME280;40708;50.364;7.550;2023-03-22T07:19:51;100018.81;;;11.84;100.00
54808;BME280;40708;50.364;7.550;2023-03-22T07:22:16;100017.75;;;11.99;100.00
54808;BME280;40708;50.364;7.550;2023-03-22T07:24:41;100024.75;;;12.06;100.00
54808;BME280;40708;50.364;7.550;2023-03-22T07:27:07;100022.22;;;11.93;100.00
54808;BME280;40708;50.364;7.550;2023-03-22T07:29:32;100014.13;;;12.06;100.00
54808;BME280;40708;50.364;7.550;2023-03-22T07:31:57;100011.47;;;12.04;100.00
54808;BME280;40708;50.364;7.550;2023-03-22T07:34:23;100005.16;;;12.13;100.00
54808;BME280;40708;50.364;7.550;2023-03-22T07:36:48;100008.78;;;12.07;100.00
54808;BME280;40708;50.364;7.550;2023-03-22T07:39:13;99994.38;;;12.23;100.00
54808;BME280;40708;50.364;7.550;2023-03-22T07:41:39;99994.25;;;12.32;100.00
54808;BME280;40708;50.364;7.550;2023-03-22T07:44:04;99993.94;;;12.53;100.00
54808;BME280;40708;50.364;7.550;2023-03-22T07:46:31;99991.03;;;12.72;100.00
54808;BME280;40708;50.364;7.550;2023-03-22T07:48:56;99983.66;;;12.89;100.00
54808;BME280;40708;50.364;7.550;2023-03-22T07:51:21;99970.38;;;12.87;100.00
54808;BME280;40708;50.364;7.550;2023-03-22T07:53:47;99973.41;;;13.18;100.00
54808;BME280;40708;50.364;7.550;2023-03-22T07:56:12;99980.03;;;12.93;100.00
54808;BME280;40708;50.364;7.550;2023-03-22T07:58:38;99964.06;;;12.91;100.00
54808;BME280;40708;50.364;7.550;2023-03-22T08:01:06;99971.03;;;13.01;100.00
54808;BME280;40708;50.364;7.550;2023-03-22T08:03:34;99969.78;;;13.22;100.00
54808;BME280;40708;50.364;7.550;2023-03-22T08:06:01;99953.16;;;13.57;100.00
54808;BME280;40708;50.364;7.550;2023-03-22T08:08:32;99949.78;;;13.47;100.00
54808;BME280;40708;50.364;7.550;2023-03-22T08:10:57;99952.53;;;13.44;100.00
54808;BME280;40708;50.364;7.550;2023-03-22T08:13:22;99950.63;;;13.49;100.00
54808;BME280;40708;50.364;7.550;2023-03-22T08:15:48;99939.09;;;13.93;100.00
54808;BME280;40708;50.364;7.550;2023-03-22T08:18:13;99928.59;;;14.25;100.00
54808;BME280;40708;50.364;7.550;2023-03-22T08:20:39;99924.09;;;14.27;100.00
54808;BME280;40708;50.364;7.550;2023-03-22T08:23:05;99911.19;;;15.18;100.00
54808;BME280;40708;50.364;7.550;2023-03-22T08:25:32;99904.94;;;15.82;100.00
54808;BME280;40708;50.364;7.550;2023-03-22T08:27:58;99902.91;;;16.20;100.00
54808;BME280;40708;50.364;7.550;2023-03-22T08:30:23;99898.03;;;16.04;100.00
54808;BME280;40708;50.364;7.550;2023-03-22T08:32:48;99896.19;;;16.34;100.00
54808;BME280;40708;50.364;7.550;2023-03-22T08:35:14;99901.91;;;15.94;100.00
54808;BME280;40708;50.364;7.550;2023-03-22T08:37:40;99920.72;;;15.61;100.00
54808;BME280;40708;50.364;7.550;2023-03-22T08:40:07;99912.03;;;15.53;100.00
54808;BME280;40708;50.364;7.550;2023-03-22T08:42:33;99899.50;;;14.88;100.00
54808;BME280;40708;50.364;7.550;2023-03-22T08:44:59;99918.88;;;14.61;100.00
54808;BME280;40708;50.364;7.550;2023-03-22T08:47:24;99900.97;;;14.65;100.00
54808;BME280;40708;50.364;7.550;2023-03-22T08:49:50;99907.53;;;14.52;100.00
54808;BME280;40708;50.364;7.550;2023-03-22T08:52:15;99905.94;;;14.45;100.00
54808;BME280;40708;50.364;7.550;2023-03-22T08:54:40;99903.28;;;14.43;100.00
54808;BME280;40708;50.364;7.550;2023-03-22T08:57:06;99901.41;;;14.83;100.00
54808;BME280;40708;50.364;7.550;2023-03-22T08:59:33;99887.34;;;15.11;100.00
54808;BME280;40708;50.364;7.550;2023-03-22T09:01:59;99896.09;;;15.16;100.00
54808;BME280;40708;50.364;7.550;2023-03-22T09:04:25;99887.94;;;15.22;100.00
54808;BME280;40708;50.364;7.550;2023-03-22T09:06:50;99887.34;;;14.77;100.00
54808;BME280;40708;50.364;7.550;2023-03-22T09:09:16;99895.94;;;14.88;100.00
54808;BME280;40708;50.364;7.550;2023-03-22T09:11:41;99890.16;;;15.05;100.00
54808;BME280;40708;50.364;7.550;2023-03-22T09:14:08;99888.97;;;15.16;100.00
54808;BME280;40708;50.364;7.550;2023-03-22T09:16:34;99880.47;;;14.67;100.00
54808;BME280;40708;50.364;7.550;2023-03-22T09:18:59;99891.00;;;14.73;100.00
54808;BME280;40708;50.364;7.550;2023-03-22T09:21:25;99892.59;;;14.43;100.00
54808;BME280;40708;50.364;7.550;2023-03-22T09:23:51;99887.94;;;14.53;100.00
54808;BME280;40708;50.364;7.550;2023-03-22T09:26:16;99886.47;;;15.09;100.00
54808;BME280;40708;50.364;7.550;2023-03-22T09:28:41;99890.88;;;15.11;100.00
54808;BME280;40708;50.364;7.550;2023-03-22T09:31:09;99881.94;;;15.12;100.00
54808;BME280;40708;50.364;7.550;2023-03-22T09:33:36;99889.41;;;15.00;100.00
54808;BME280;40708;50.364;7.550;2023-03-22T09:36:02;99887.28;;;15.12;100.00
54808;BME280;40708;50.364;7.550;2023-03-22T09:38:27;99881.34;;;15.01;100.00
54808;BME280;40708;50.364;7.550;2023-03-22T09:41:01;99877.78;;;15.33;100.00
54808;BME280;40708;50.364;7.550;2023-03-22T09:43:37;99875.06;;;15.97;100.00
54808;BME280;40708;50.364;7.550;2023-03-22T09:46:06;99883.78;;;16.32;100.00
54808;BME280;40708;50.364;7.550;2023-03-22T09:48:36;99871.81;;;16.16;100.00
54808;BME280;40708;50.364;7.550;2023-03-22T09:51:06;99884.72;;;16.01;100.00
54808;BME280;40708;50.364;7.550;2023-03-22T09:53:35;99880.84;;;16.12;100.00
54808;BME280;40708;50.364;7.550;2023-03-22T09:59:21;99880.50;;;16.50;100.00
54808;BME280;40708;50.364;7.550;2023-03-22T10:01:54;99880.28;;;16.30;100.00
54808;BME280;40708;50.364;7.550;2023-03-22T10:04:37;99892.09;;;16.23;100.00
54808;BME280;40708;50.364;7.550;2023-03-22T10:07:17;99891.00;;;16.30;100.00
54808;BME280;40708;50.364;7.550;2023-03-22T10:10:10;99885.28;;;16.13;100.00
54808;BME280;40708;50.364;7.550;2023-03-22T10:13:15;99878.44;;;16.32;100.00
54808;BME280;40708;50.364;7.550;2023-03-22T10:15:48;99868.25;;;16.71;100.00
54808;BME280;40708;50.364;7.550;2023-03-22T10:18:25;99876.50;;;17.15;100.00
54808;BME280;40708;50.364;7.550;2023-03-22T10:21:08;99863.00;;;16.67;100.00
54808;BME280;40708;50.364;7.550;2023-03-22T10:23:45;99859.41;;;17.69;100.00
54808;BME280;40708;50.364;7.550;2023-03-22T10:28:47;99867.69;;;16.61;100.00
54808;BME280;40708;50.364;7.550;2023-03-22T10:31:16;99851.78;;;16.56;100.00
54808;BME280;40708;50.364;7.550;2023-03-22T10:33:53;99853.47;;;16.31;100.00
54808;BME280;40708;50.364;7.550;2023-03-22T10:36:22;99848.44;;;16.21;100.00
54808;BME280;40708;50.364;7.550;2023-03-22T10:38:55;99850.31;;;16.73;100.00
54808;BME280;40708;50.364;7.550;2023-03-22T10:41:24;99844.28;;;16.66;100.00
54808;BME280;40708;50.364;7.550;2023-03-22T10:43:57;99841.63;;;17.17;100.00
54808;BME280;40708;50.364;7.550;2023-03-22T10:46:27;99841.72;;;16.89;100.00
54808;BME280;40708;50.364;7.550;2023-03-22T10:48:59;99842.50;;;16.66;100.00
54808;BME280;40708;50.364;7.550;2023-03-22T10:51:28;99841.69;;;16.37;100.00
54808;BME280;40708;50.364;7.550;2023-03-22T10:53:55;99839.44;;;16.23;100.00
54808;BME280;40708;50.364;7.550;2023-03-22T10:56:22;99844.09;;;16.44;100.00
54808;BME280;40708;50.364;7.550;2023-03-22T10:58:49;99845.75;;;16.48;100.00
54808;BME280;40708;50.364;7.550;2023-03-22T11:01:26;99857.91;;;16.32;100.00
54808;BME280;40708;50.364;7.550;2023-03-22T11:04:06;99850.31;;;16.46;100.00
54808;BME280;40708;50.364;7.550;2023-03-22T11:06:33;99853.06;;;16.43;100.00
54808;BME280;40708;50.364;7.550;2023-03-22T11:09:16;99847.19;;;16.60;100.00
54808;BME280;40708;50.364;7.550;2023-03-22T11:11:49;99852.91;;;16.76;100.00
54808;BME280;40708;50.364;7.550;2023-03-22T11:14:32;99849.31;;;16.49;100.00
54808;BME280;40708;50.364;7.550;2023-03-22T11:17:11;99861.41;;;16.62;100.00
54808;BME280;40708;50.364;7.550;2023-03-22T11:19:52;99849.56;;;16.41;100.00
54808;BME280;40708;50.364;7.550;2023-03-22T11:22:31;99857.59;;;16.69;100.00
54808;BME280;40708;50.364;7.550;2023-03-22T11:24:58;99852.28;;;17.18;100.00
54808;BME280;40708;50.364;7.550;2023-03-22T11:27:26;99850.06;;;17.06;100.00
54808;BME280;40708;50.364;7.550;2023-03-22T11:29:56;99853.78;;;16.76;100.00
54808;BME280;40708;50.364;7.550;2023-03-22T11:32:28;99853.00;;;16.45;100.00
54808;BME280;40708;50.364;7.550;2023-03-22T11:37:49;99846.25;;;16.61;100.00
54808;BME280;40708;50.364;7.550;2023-03-22T11:40:18;99848.47;;;17.01;100.00
54808;BME280;40708;50.364;7.550;2023-03-22T11:42:45;99846.22;;;17.38;100.00
54808;BME280;40708;50.364;7.550;2023-03-22T11:45:17;99852.25;;;17.20;100.00
54808;BME280;40708;50.364;7.550;2023-03-22T11:47:45;99848.97;;;17.12;100.00
54808;BME280;40708;50.364;7.550;2023-03-22T11:50:31;99850.66;;;17.39;100.00
54808;BME280;40708;50.364;7.550;2023-03-22T11:53:04;99852.84;;;17.03;100.00
54808;BME280;40708;50.364;7.550;2023-03-22T11:55:33;99843.56;;;17.37;100.00
54808;BME280;40708;50.364;7.550;2023-03-22T11:58:01;99853.34;;;17.14;100.00
54808;BME280;40708;50.364;7.550;2023-03-22T12:00:30;99854.19;;;17.15;100.00
54808;BME280;40708;50.364;7.550;2023-03-22T12:03:03;99843.63;;;16.86;100.00
54808;BME280;40708;50.364;7.550;2023-03-22T12:05:32;99843.47;;;16.64;100.00
54808;BME280;40708;50.364;7.550;2023-03-22T12:08:24;99842.28;;;16.73;100.00
54808;BME280;40708;50.364;7.550;2023-03-22T12:10:56;99840.03;;;16.87;100.00
54808;BME280;40708;50.364;7.550;2023-03-22T12:16:14;99825.66;;;16.89;100.00
54808;BME280;40708;50.364;7.550;2023-03-22T12:18:53;99827.81;;;16.78;100.00
54808;BME280;40708;50.364;7.550;2023-03-22T12:21:25;99814.19;;;16.59;100.00
54808;BME280;40708;50.364;7.550;2023-03-22T12:23:53;99828.34;;;16.88;100.00
54808;BME280;40708;50.364;7.550;2023-03-22T12:26:24;99821.47;;;16.81;100.00
54808;BME280;40708;50.364;7.550;2023-03-22T12:29:03;99815.63;;;16.94;100.00
54808;BME280;40708;50.364;7.550;2023-03-22T12:31:36;99802.00;;;16.49;100.00
54808;BME280;40708;50.364;7.550;2023-03-22T12:34:05;99811.94;;;16.98;100.00
54808;BME280;40708;50.364;7.550;2023-03-22T12:36:44;99810.97;;;16.99;100.00
54808;BME280;40708;50.364;7.550;2023-03-22T12:39:40;99805.03;;;16.91;100.00
54808;BME280;40708;50.364;7.550;2023-03-22T12:42:36;99788.50;;;17.28;100.00
54808;BME280;40708;50.364;7.550;2023-03-22T12:45:24;99794.34;;;17.39;100.00
54808;BME280;40708;50.364;7.550;2023-03-22T12:48:14;99786.91;;;17.46;100.00
54808;BME280;40708;50.364;7.550;2023-03-22T12:50:56;99783.13;;;17.28;100.00
54808;BME280;40708;50.364;7.550;2023-03-22T12:53:27;99801.31;;;16.95;100.00
54808;BME280;40708;50.364;7.550;2023-03-22T12:55:54;99810.84;;;17.04;100.00
54808;BME280;40708;50.364;7.550;2023-03-22T12:58:22;99801.91;;;17.03;100.00
54808;BME280;40708;50.364;7.550;2023-03-22T13:05:47;99808.38;;;16.19;100.00
54808;BME280;40708;50.364;7.550;2023-03-22T13:08:18;99806.75;;;16.14;100.00
54808;BME280;40708;50.364;7.550;2023-03-22T13:10:58;99802.03;;;15.94;100.00
54808;BME280;40708;50.364;7.550;2023-03-22T13:21:15;99795.81;;;15.93;100.00
54808;BME280;40708;50.364;7.550;2023-03-22T13:26:45;99784.28;;;15.91;100.00
54808;BME280;40708;50.364;7.550;2023-03-22T13:32:27;99775.78;;;15.79;100.00
54808;BME280;40708;50.364;7.550;2023-03-22T13:34:54;99775.38;;;15.91;100.00
54808;BME280;40708;50.364;7.550;2023-03-22T13:37:28;99770.53;;;15.76;100.00
54808;BME280;40708;50.364;7.550;2023-03-22T13:39:56;99775.75;;;15.51;100.00
54808;BME280;40708;50.364;7.550;2023-03-22T13:42:38;99763.75;;;15.33;100.00
54808;BME280;40708;50.364;7.550;2023-03-22T13:45:07;99761.34;;;15.55;100.00
54808;BME280;40708;50.364;7.550;2023-03-22T13:47:36;99759.53;;;15.57;100.00
54808;BME280;40708;50.364;7.550;2023-03-22T13:50:17;99784.47;;;15.27;100.00
54808;BME280;40708;50.364;7.550;2023-03-22T13:52:57;99783.66;;;15.23;100.00
54808;BME280;40708;50.364;7.550;2023-03-22T13:58:02;99765.94;;;15.21;100.00
54808;BME280;40708;50.364;7.550;2023-03-22T14:02:59;99782.38;;;15.36;100.00
54808;BME280;40708;50.364;7.550;2023-03-22T14:05:29;99765.81;;;15.55;100.00
54808;BME280;40708;50.364;7.550;2023-03-22T14:07:57;99769.00;;;15.67;100.00
54808;BME280;40708;50.364;7.550;2023-03-22T14:10:36;99765.94;;;15.79;100.00
54808;BME280;40708;50.364;7.550;2023-03-22T14:13:13;99775.31;;;15.65;100.00